Terminal Aerodrome Forecast
Issued by NWS Flagstaff, AZ

Home | Current Version | Previous Version | Text Only | Print | Product List | Glossary On
Versions: 1 2 3 4 5 6 7 8 9 10 11 12 13 14 15 16 17
000
FTUS45 KFGZ 311747 AAA
TAFFLG
TAF AMD
KFLG 311747Z 3118/0118 22008KT P6SM VCSH BKN060
      TEMPO 3118/3122 5SM TSRA BKN040CB OVC060
     FM010300 VRB04KT P6SM SCT060 BKN100 PROB30 0103/0107 SHRA
      BKN050=

USA.gov is the U.S. government's official web portal to all federal, state and local government web resources and services.